sensor_id;sensor_type;location;lat;lon;timestamp;pressure;altitude;pressure_sealevel;temperature;humidity
76778;BME280;65721;50.118;8.714;2022-12-07T00:03:37;100409.48;;;4.67;71.31
76778;BME280;65721;50.118;8.714;2022-12-07T00:06:04;100410.63;;;4.65;71.26
76778;BME280;65721;50.118;8.714;2022-12-07T00:08:31;100414.80;;;4.62;71.52
76778;BME280;65721;50.118;8.714;2022-12-07T00:11:18;100414.89;;;4.59;71.39
76778;BME280;65721;50.118;8.714;2022-12-07T00:13:44;100411.10;;;4.57;71.57
76778;BME280;65721;50.118;8.714;2022-12-07T00:16:15;100405.02;;;4.58;71.36
76778;BME280;65721;50.118;8.714;2022-12-07T00:18:41;100401.15;;;4.60;71.37
76778;BME280;65721;50.118;8.714;2022-12-07T00:21:15;100404.98;;;4.64;71.52
76778;BME280;65721;50.118;8.714;2022-12-07T00:23:42;100397.88;;;4.66;71.29
76778;BME280;65721;50.118;8.714;2022-12-07T00:28:38;100389.41;;;4.74;71.06
76778;BME280;65721;50.118;8.714;2022-12-07T00:31:06;100388.61;;;4.77;70.98
76778;BME280;65721;50.118;8.714;2022-12-07T00:33:33;100386.91;;;4.77;70.87
76778;BME280;65721;50.118;8.714;2022-12-07T00:35:59;100383.47;;;4.75;71.10
76778;BME280;65721;50.118;8.714;2022-12-07T00:38:28;100382.01;;;4.70;71.26
76778;BME280;65721;50.118;8.714;2022-12-07T00:40:59;100375.29;;;4.68;71.46
76778;BME280;65721;50.118;8.714;2022-12-07T00:43:26;100371.67;;;4.65;71.77
76778;BME280;65721;50.118;8.714;2022-12-07T00:45:52;100372.62;;;4.63;71.88
76778;BME280;65721;50.118;8.714;2022-12-07T00:48:18;100372.24;;;4.60;71.77
76778;BME280;65721;50.118;8.714;2022-12-07T00:50:44;100369.25;;;4.56;72.09
76778;BME280;65721;50.118;8.714;2022-12-07T00:53:10;100371.94;;;4.55;72.16
76778;BME280;65721;50.118;8.714;2022-12-07T00:55:36;100368.02;;;4.54;72.20
76778;BME280;65721;50.118;8.714;2022-12-07T00:58:02;100370.91;;;4.54;72.37
76778;BME280;65721;50.118;8.714;2022-12-07T01:00:28;100374.08;;;4.52;72.37
76778;BME280;65721;50.118;8.714;2022-12-07T01:02:54;100369.29;;;4.51;72.42
76778;BME280;65721;50.118;8.714;2022-12-07T01:05:19;100373.01;;;4.50;72.57
76778;BME280;65721;50.118;8.714;2022-12-07T01:07:44;100377.38;;;4.48;72.75
76778;BME280;65721;50.118;8.714;2022-12-07T01:10:12;100380.32;;;4.43;72.81
76778;BME280;65721;50.118;8.714;2022-12-07T01:12:37;100377.63;;;4.37;73.14
76778;BME280;65721;50.118;8.714;2022-12-07T01:15:03;100374.45;;;4.32;73.25
76778;BME280;65721;50.118;8.714;2022-12-07T01:17:30;100369.92;;;4.28;73.49
76778;BME280;65721;50.118;8.714;2022-12-07T01:19:55;100363.59;;;4.26;73.72
76778;BME280;65721;50.118;8.714;2022-12-07T01:22:21;100358.18;;;4.27;73.63
76778;BME280;65721;50.118;8.714;2022-12-07T01:24:46;100348.96;;;4.26;73.59
76778;BME280;65721;50.118;8.714;2022-12-07T01:27:13;100346.56;;;4.25;73.76
76778;BME280;65721;50.118;8.714;2022-12-07T01:29:38;100347.42;;;4.26;73.85
76778;BME280;65721;50.118;8.714;2022-12-07T01:32:04;100353.18;;;4.25;73.71
76778;BME280;65721;50.118;8.714;2022-12-07T01:34:30;100355.00;;;4.22;73.99
76778;BME280;65721;50.118;8.714;2022-12-07T01:36:56;100361.02;;;4.18;74.07
76778;BME280;65721;50.118;8.714;2022-12-07T01:39:22;100364.15;;;4.14;74.28
76778;BME280;65721;50.118;8.714;2022-12-07T01:41:47;100366.43;;;4.10;74.32
76778;BME280;65721;50.118;8.714;2022-12-07T01:44:14;100366.86;;;4.08;74.36
76778;BME280;65721;50.118;8.714;2022-12-07T01:46:42;100371.31;;;4.09;74.63
76778;BME280;65721;50.118;8.714;2022-12-07T01:49:13;100372.64;;;4.08;74.38
76778;BME280;65721;50.118;8.714;2022-12-07T01:51:40;100371.96;;;4.08;74.34
76778;BME280;65721;50.118;8.714;2022-12-07T01:54:08;100376.67;;;4.06;74.48
76778;BME280;65721;50.118;8.714;2022-12-07T01:56:36;100374.33;;;4.07;74.51
76778;BME280;65721;50.118;8.714;2022-12-07T01:59:02;100372.86;;;4.10;74.55
76778;BME280;65721;50.118;8.714;2022-12-07T02:01:28;100373.59;;;4.12;74.57
76778;BME280;65721;50.118;8.714;2022-12-07T02:03:54;100367.36;;;4.14;74.46
76778;BME280;65721;50.118;8.714;2022-12-07T02:06:22;100364.23;;;4.11;74.59
76778;BME280;65721;50.118;8.714;2022-12-07T02:08:49;100360.55;;;4.06;74.50
76778;BME280;65721;50.118;8.714;2022-12-07T02:11:16;100352.17;;;4.05;74.53
76778;BME280;65721;50.118;8.714;2022-12-07T02:13:46;100357.48;;;4.07;74.72
76778;BME280;65721;50.118;8.714;2022-12-07T02:21:45;100348.42;;;4.05;75.33
76778;BME280;65721;50.118;8.714;2022-12-07T02:24:37;100346.91;;;4.05;75.26
76778;BME280;65721;50.118;8.714;2022-12-07T02:32:06;100337.21;;;3.98;75.71
76778;BME280;65721;50.118;8.714;2022-12-07T02:34:37;100336.00;;;3.97;75.70
76778;BME280;65721;50.118;8.714;2022-12-07T02:37:14;100328.95;;;3.94;75.69
76778;BME280;65721;50.118;8.714;2022-12-07T02:39:58;100327.73;;;3.92;75.78
76778;BME280;65721;50.118;8.714;2022-12-07T02:42:32;100328.91;;;3.92;75.72
76778;BME280;65721;50.118;8.714;2022-12-07T02:45:00;100326.83;;;3.91;75.74
76778;BME280;65721;50.118;8.714;2022-12-07T02:47:28;100329.67;;;3.89;75.78
76778;BME280;65721;50.118;8.714;2022-12-07T02:49:55;100330.50;;;3.88;75.85
76778;BME280;65721;50.118;8.714;2022-12-07T02:52:21;100330.60;;;3.85;75.75
76778;BME280;65721;50.118;8.714;2022-12-07T02:54:46;100333.42;;;3.82;75.81
76778;BME280;65721;50.118;8.714;2022-12-07T02:57:39;100332.83;;;3.79;75.98
76778;BME280;65721;50.118;8.714;2022-12-07T03:00:11;100332.48;;;3.79;76.05
76778;BME280;65721;50.118;8.714;2022-12-07T03:03:01;100329.99;;;3.75;75.95
76778;BME280;65721;50.118;8.714;2022-12-07T03:12:00;100323.80;;;3.85;76.02
76778;BME280;65721;50.118;8.714;2022-12-07T03:14:34;100319.47;;;3.88;75.79
76778;BME280;65721;50.118;8.714;2022-12-07T03:17:18;100320.83;;;3.88;75.82
76778;BME280;65721;50.118;8.714;2022-12-07T03:19:47;100315.73;;;3.88;75.83
76778;BME280;65721;50.118;8.714;2022-12-07T03:22:16;100314.77;;;3.91;75.87
76778;BME280;65721;50.118;8.714;2022-12-07T03:24:56;100315.52;;;3.94;75.66
76778;BME280;65721;50.118;8.714;2022-12-07T03:27:23;100321.11;;;3.93;75.61
76778;BME280;65721;50.118;8.714;2022-12-07T03:30:06;100327.92;;;3.93;75.79
76778;BME280;65721;50.118;8.714;2022-12-07T03:32:34;100322.31;;;3.93;75.65
76778;BME280;65721;50.118;8.714;2022-12-07T03:37:58;100317.92;;;3.94;75.70
76778;BME280;65721;50.118;8.714;2022-12-07T03:43:08;100308.05;;;4.00;75.33
76778;BME280;65721;50.118;8.714;2022-12-07T03:50:44;100304.65;;;4.01;75.47
76778;BME280;65721;50.118;8.714;2022-12-07T03:53:14;100307.62;;;3.97;75.44
76778;BME280;65721;50.118;8.714;2022-12-07T03:55:44;100308.89;;;3.93;75.44
76778;BME280;65721;50.118;8.714;2022-12-07T03:58:15;100303.25;;;3.92;75.63
76778;BME280;65721;50.118;8.714;2022-12-07T04:00:43;100301.33;;;3.89;75.71
76778;BME280;65721;50.118;8.714;2022-12-07T04:03:09;100292.95;;;3.87;75.78
76778;BME280;65721;50.118;8.714;2022-12-07T04:05:35;100294.17;;;3.89;75.89
76778;BME280;65721;50.118;8.714;2022-12-07T04:08:02;100292.75;;;3.93;75.69
76778;BME280;65721;50.118;8.714;2022-12-07T04:10:28;100292.84;;;3.97;75.81
76778;BME280;65721;50.118;8.714;2022-12-07T04:12:53;100287.80;;;3.99;75.64
76778;BME280;65721;50.118;8.714;2022-12-07T04:15:19;100291.45;;;4.02;75.69
76778;BME280;65721;50.118;8.714;2022-12-07T04:17:44;100292.38;;;4.06;75.54
76778;BME280;65721;50.118;8.714;2022-12-07T04:20:10;100293.45;;;4.07;75.49
76778;BME280;65721;50.118;8.714;2022-12-07T04:22:36;100290.20;;;4.07;75.38
76778;BME280;65721;50.118;8.714;2022-12-07T04:25:03;100291.77;;;4.08;75.45
76778;BME280;65721;50.118;8.714;2022-12-07T04:27:29;100296.22;;;4.09;75.52
76778;BME280;65721;50.118;8.714;2022-12-07T04:29:54;100296.38;;;4.09;75.31
76778;BME280;65721;50.118;8.714;2022-12-07T04:32:22;100296.55;;;4.09;75.40
76778;BME280;65721;50.118;8.714;2022-12-07T04:34:48;100295.08;;;4.12;75.44
76778;BME280;65721;50.118;8.714;2022-12-07T04:37:14;100295.02;;;4.17;75.56
76778;BME280;65721;50.118;8.714;2022-12-07T04:39:40;100298.99;;;4.20;75.39
76778;BME280;65721;50.118;8.714;2022-12-07T04:42:06;100299.17;;;4.20;75.32
76778;BME280;65721;50.118;8.714;2022-12-07T04:44:32;100296.59;;;4.18;75.09
76778;BME280;65721;50.118;8.714;2022-12-07T04:46:58;100295.06;;;4.18;75.33
76778;BME280;65721;50.118;8.714;2022-12-07T04:49:24;100293.53;;;4.19;75.09
76778;BME280;65721;50.118;8.714;2022-12-07T04:51:50;100291.13;;;4.18;75.09
76778;BME280;65721;50.118;8.714;2022-12-07T04:54:16;100287.23;;;4.17;75.24
76778;BME280;65721;50.118;8.714;2022-12-07T04:56:42;100286.33;;;4.16;75.06
76778;BME280;65721;50.118;8.714;2022-12-07T04:59:13;100287.52;;;4.16;75.26
76778;BME280;65721;50.118;8.714;2022-12-07T05:01:39;100283.61;;;4.16;75.04
76778;BME280;65721;50.118;8.714;2022-12-07T05:04:05;100285.34;;;4.17;75.36
76778;BME280;65721;50.118;8.714;2022-12-07T05:06:32;100280.44;;;4.18;75.21
76778;BME280;65721;50.118;8.714;2022-12-07T05:08:58;100276.55;;;4.19;75.19
76778;BME280;65721;50.118;8.714;2022-12-07T05:11:23;100277.55;;;4.18;75.22
76778;BME280;65721;50.118;8.714;2022-12-07T05:14:08;100277.82;;;4.15;75.29
76778;BME280;65721;50.118;8.714;2022-12-07T05:16:34;100278.31;;;4.15;75.35
76778;BME280;65721;50.118;8.714;2022-12-07T05:19:00;100276.61;;;4.15;75.38
76778;BME280;65721;50.118;8.714;2022-12-07T05:21:26;100279.60;;;4.11;75.48
76778;BME280;65721;50.118;8.714;2022-12-07T05:23:51;100286.33;;;4.09;75.62
76778;BME280;65721;50.118;8.714;2022-12-07T05:26:17;100290.61;;;4.09;75.54
76778;BME280;65721;50.118;8.714;2022-12-07T05:28:43;100295.73;;;4.11;75.79
76778;BME280;65721;50.118;8.714;2022-12-07T05:31:08;100292.77;;;4.15;75.66
76778;BME280;65721;50.118;8.714;2022-12-07T05:33:34;100289.44;;;4.17;75.55
76778;BME280;65721;50.118;8.714;2022-12-07T05:35:59;100291.31;;;4.17;75.56
76778;BME280;65721;50.118;8.714;2022-12-07T05:38:32;100282.80;;;4.18;75.50
76778;BME280;65721;50.118;8.714;2022-12-07T05:41:02;100284.56;;;4.20;75.59
76778;BME280;65721;50.118;8.714;2022-12-07T05:43:29;100280.05;;;4.23;75.74
76778;BME280;65721;50.118;8.714;2022-12-07T05:45:55;100280.25;;;4.24;75.62
76778;BME280;65721;50.118;8.714;2022-12-07T05:48:22;100282.28;;;4.24;75.69
76778;BME280;65721;50.118;8.714;2022-12-07T05:50:48;100285.00;;;4.24;75.77
76778;BME280;65721;50.118;8.714;2022-12-07T05:53:15;100288.45;;;4.27;75.67
76778;BME280;65721;50.118;8.714;2022-12-07T05:55:40;100285.38;;;4.26;75.58
76778;BME280;65721;50.118;8.714;2022-12-07T05:58:06;100282.52;;;4.27;75.67
76778;BME280;65721;50.118;8.714;2022-12-07T06:00:50;100283.23;;;4.28;75.71
76778;BME280;65721;50.118;8.714;2022-12-07T06:03:16;100281.04;;;4.28;75.72
76778;BME280;65721;50.118;8.714;2022-12-07T06:05:41;100282.05;;;4.29;75.74
76778;BME280;65721;50.118;8.714;2022-12-07T06:08:07;100279.67;;;4.28;75.75
76778;BME280;65721;50.118;8.714;2022-12-07T06:10:33;100278.48;;;4.28;75.66
76778;BME280;65721;50.118;8.714;2022-12-07T06:12:59;100276.79;;;4.30;75.80
76778;BME280;65721;50.118;8.714;2022-12-07T06:15:24;100281.55;;;4.29;75.79
76778;BME280;65721;50.118;8.714;2022-12-07T06:17:50;100274.74;;;4.29;75.73
76778;BME280;65721;50.118;8.714;2022-12-07T06:20:15;100274.96;;;4.31;75.81
76778;BME280;65721;50.118;8.714;2022-12-07T06:22:42;100274.31;;;4.32;75.81
76778;BME280;65721;50.118;8.714;2022-12-07T06:25:07;100272.80;;;4.33;75.90
76778;BME280;65721;50.118;8.714;2022-12-07T06:27:34;100276.76;;;4.34;75.77
76778;BME280;65721;50.118;8.714;2022-12-07T06:30:00;100280.88;;;4.36;75.86
76778;BME280;65721;50.118;8.714;2022-12-07T06:32:32;100280.56;;;4.38;75.77
76778;BME280;65721;50.118;8.714;2022-12-07T06:34:59;100284.02;;;4.40;75.73
76778;BME280;65721;50.118;8.714;2022-12-07T06:37:25;100281.13;;;4.40;75.68
76778;BME280;65721;50.118;8.714;2022-12-07T06:39:50;100279.73;;;4.39;75.60
76778;BME280;65721;50.118;8.714;2022-12-07T06:42:16;100277.34;;;4.38;75.76
76778;BME280;65721;50.118;8.714;2022-12-07T06:44:41;100276.02;;;4.40;75.80
76778;BME280;65721;50.118;8.714;2022-12-07T06:47:07;100279.08;;;4.40;75.63
76778;BME280;65721;50.118;8.714;2022-12-07T06:49:33;100279.46;;;4.42;75.85
76778;BME280;65721;50.118;8.714;2022-12-07T06:51:59;100281.56;;;4.45;75.74
76778;BME280;65721;50.118;8.714;2022-12-07T06:54:24;100283.11;;;4.45;75.64
76778;BME280;65721;50.118;8.714;2022-12-07T06:56:50;100286.66;;;4.45;75.72
76778;BME280;65721;50.118;8.714;2022-12-07T06:59:15;100286.38;;;4.46;75.82
76778;BME280;65721;50.118;8.714;2022-12-07T07:01:40;100290.45;;;4.46;75.63
76778;BME280;65721;50.118;8.714;2022-12-07T07:04:06;100295.85;;;4.45;75.69
76778;BME280;65721;50.118;8.714;2022-12-07T07:06:32;100293.33;;;4.46;75.71
76778;BME280;65721;50.118;8.714;2022-12-07T07:08:57;100296.23;;;4.46;75.74
76778;BME280;65721;50.118;8.714;2022-12-07T07:11:23;100296.56;;;4.46;75.83
76778;BME280;65721;50.118;8.714;2022-12-07T07:13:48;100301.90;;;4.49;75.85
76778;BME280;65721;50.118;8.714;2022-12-07T07:16:14;100301.28;;;4.52;75.77
76778;BME280;65721;50.118;8.714;2022-12-07T07:18:39;100303.23;;;4.55;75.61
76778;BME280;65721;50.118;8.714;2022-12-07T07:21:05;100308.37;;;4.56;75.68
76778;BME280;65721;50.118;8.714;2022-12-07T07:23:30;100309.77;;;4.58;75.60
76778;BME280;65721;50.118;8.714;2022-12-07T07:25:56;100313.44;;;4.63;75.64
76778;BME280;65721;50.118;8.714;2022-12-07T07:28:21;100312.31;;;4.65;75.46
76778;BME280;65721;50.118;8.714;2022-12-07T07:30:47;100313.51;;;4.66;75.56
76778;BME280;65721;50.118;8.714;2022-12-07T07:33:12;100305.64;;;4.64;75.51
76778;BME280;65721;50.118;8.714;2022-12-07T07:35:38;100305.95;;;4.63;75.97
76778;BME280;65721;50.118;8.714;2022-12-07T07:38:05;100307.01;;;4.64;75.99
76778;BME280;65721;50.118;8.714;2022-12-07T07:40:30;100304.85;;;4.67;75.89
76778;BME280;65721;50.118;8.714;2022-12-07T07:42:57;100308.89;;;4.72;75.74
76778;BME280;65721;50.118;8.714;2022-12-07T07:45:25;100306.63;;;4.77;75.74
76778;BME280;65721;50.118;8.714;2022-12-07T07:47:51;100308.74;;;4.82;75.34
76778;BME280;65721;50.118;8.714;2022-12-07T07:50:17;100302.85;;;4.84;75.05
76778;BME280;65721;50.118;8.714;2022-12-07T07:52:43;100302.90;;;4.86;75.24
76778;BME280;65721;50.118;8.714;2022-12-07T07:55:09;100303.79;;;4.89;75.12
76778;BME280;65721;50.118;8.714;2022-12-07T07:57:37;100303.34;;;4.92;74.76
76778;BME280;65721;50.118;8.714;2022-12-07T08:00:04;100311.19;;;4.92;74.71
76778;BME280;65721;50.118;8.714;2022-12-07T08:02:32;100311.14;;;4.90;74.54
76778;BME280;65721;50.118;8.714;2022-12-07T08:04:57;100312.25;;;4.86;74.55
76778;BME280;65721;50.118;8.714;2022-12-07T08:07:22;100315.79;;;4.84;74.72
76778;BME280;65721;50.118;8.714;2022-12-07T08:09:48;100314.83;;;4.87;74.62
76778;BME280;65721;50.118;8.714;2022-12-07T08:12:13;100311.77;;;4.87;74.57
76778;BME280;65721;50.118;8.714;2022-12-07T08:14:39;100309.20;;;4.86;74.60
76778;BME280;65721;50.118;8.714;2022-12-07T08:17:04;100311.94;;;4.88;74.63
76778;BME280;65721;50.118;8.714;2022-12-07T08:19:30;100311.77;;;4.87;74.70
76778;BME280;65721;50.118;8.714;2022-12-07T08:21:56;100310.29;;;4.90;74.49
76778;BME280;65721;50.118;8.714;2022-12-07T08:24:22;100316.97;;;4.93;74.17
76778;BME280;65721;50.118;8.714;2022-12-07T08:26:48;100318.00;;;4.93;74.17
76778;BME280;65721;50.118;8.714;2022-12-07T08:29:15;100321.06;;;4.92;74.15
76778;BME280;65721;50.118;8.714;2022-12-07T08:31:40;100323.89;;;4.90;74.20
76778;BME280;65721;50.118;8.714;2022-12-07T08:34:05;100326.38;;;4.86;74.35
76778;BME280;65721;50.118;8.714;2022-12-07T08:36:31;100326.30;;;4.82;74.37
76778;BME280;65721;50.118;8.714;2022-12-07T08:38:56;100323.39;;;4.82;74.38
76778;BME280;65721;50.118;8.714;2022-12-07T08:41:22;100321.05;;;4.83;74.40
76778;BME280;65721;50.118;8.714;2022-12-07T08:43:47;100320.14;;;4.89;74.52
76778;BME280;65721;50.118;8.714;2022-12-07T08:46:20;100325.68;;;4.94;74.17
76778;BME280;65721;50.118;8.714;2022-12-07T08:48:51;100323.52;;;4.96;74.11
76778;BME280;65721;50.118;8.714;2022-12-07T08:51:19;100325.79;;;4.98;74.15
76778;BME280;65721;50.118;8.714;2022-12-07T08:53:45;100323.75;;;4.98;73.91
76778;BME280;65721;50.118;8.714;2022-12-07T08:56:11;100326.95;;;4.97;73.74
76778;BME280;65721;50.118;8.714;2022-12-07T08:58:38;100332.70;;;4.96;73.95
76778;BME280;65721;50.118;8.714;2022-12-07T09:01:04;100332.19;;;4.95;73.92
76778;BME280;65721;50.118;8.714;2022-12-07T09:03:31;100327.75;;;4.94;74.01
76778;BME280;65721;50.118;8.714;2022-12-07T09:05:57;100328.63;;;4.96;74.10
76778;BME280;65721;50.118;8.714;2022-12-07T09:08:28;100327.27;;;4.96;73.92
76778;BME280;65721;50.118;8.714;2022-12-07T09:10:55;100329.34;;;4.98;73.81
76778;BME280;65721;50.118;8.714;2022-12-07T09:13:20;100329.19;;;4.98;73.77
76778;BME280;65721;50.118;8.714;2022-12-07T09:15:45;100328.52;;;4.99;73.61
76778;BME280;65721;50.118;8.714;2022-12-07T09:18:11;100327.55;;;5.01;73.37
76778;BME280;65721;50.118;8.714;2022-12-07T09:20:36;100328.65;;;5.05;73.52
76778;BME280;65721;50.118;8.714;2022-12-07T09:23:02;100329.24;;;5.08;73.34
76778;BME280;65721;50.118;8.714;2022-12-07T09:25:27;100328.07;;;5.10;73.19
76778;BME280;65721;50.118;8.714;2022-12-07T09:27:57;100327.75;;;5.11;72.98
76778;BME280;65721;50.118;8.714;2022-12-07T09:30:23;100332.00;;;5.11;72.97
76778;BME280;65721;50.118;8.714;2022-12-07T09:32:49;100331.93;;;5.15;72.98
76778;BME280;65721;50.118;8.714;2022-12-07T09:35:14;100335.84;;;5.23;72.84
76778;BME280;65721;50.118;8.714;2022-12-07T09:37:40;100332.44;;;5.32;72.83
76778;BME280;65721;50.118;8.714;2022-12-07T09:40:06;100338.91;;;5.40;72.63
76778;BME280;65721;50.118;8.714;2022-12-07T09:42:39;100339.20;;;5.47;72.35
76778;BME280;65721;50.118;8.714;2022-12-07T09:45:13;100339.70;;;5.55;71.98
76778;BME280;65721;50.118;8.714;2022-12-07T09:47:39;100340.54;;;5.63;71.79
76778;BME280;65721;50.118;8.714;2022-12-07T09:50:12;100342.69;;;5.68;71.47
76778;BME280;65721;50.118;8.714;2022-12-07T09:52:38;100338.92;;;5.77;71.21
76778;BME280;65721;50.118;8.714;2022-12-07T09:55:12;100336.28;;;5.82;70.69
76778;BME280;65721;50.118;8.714;2022-12-07T09:57:38;100333.50;;;5.88;70.55
76778;BME280;65721;50.118;8.714;2022-12-07T10:00:11;100330.31;;;5.98;70.26
76778;BME280;65721;50.118;8.714;2022-12-07T10:05:06;100319.31;;;6.14;69.18
76778;BME280;65721;50.118;8.714;2022-12-07T10:07:35;100317.42;;;6.13;69.43
76778;BME280;65721;50.118;8.714;2022-12-07T10:10:03;100312.53;;;6.17;69.43
76778;BME280;65721;50.118;8.714;2022-12-07T10:12:29;100316.07;;;6.24;69.36
76778;BME280;65721;50.118;8.714;2022-12-07T10:14:59;100312.95;;;6.32;69.13
76778;BME280;65721;50.118;8.714;2022-12-07T10:17:40;100314.67;;;6.44;68.96
76778;BME280;65721;50.118;8.714;2022-12-07T10:20:15;100313.44;;;6.52;68.65
76778;BME280;65721;50.118;8.714;2022-12-07T10:25:26;100314.00;;;6.79;67.98
76778;BME280;65721;50.118;8.714;2022-12-07T10:28:01;100312.97;;;6.79;67.72
76778;BME280;65721;50.118;8.714;2022-12-07T10:30:27;100307.80;;;6.76;67.57
76778;BME280;65721;50.118;8.714;2022-12-07T10:32:53;100300.55;;;6.70;67.52
76778;BME280;65721;50.118;8.714;2022-12-07T10:35:21;100300.48;;;6.66;67.73
76778;BME280;65721;50.118;8.714;2022-12-07T10:37:46;100300.82;;;6.66;67.20
76778;BME280;65721;50.118;8.714;2022-12-07T10:40:28;100297.55;;;6.63;66.46
76778;BME280;65721;50.118;8.714;2022-12-07T10:43:17;100296.61;;;6.57;65.90
76778;BME280;65721;50.118;8.714;2022-12-07T10:48:38;100297.77;;;6.67;64.86
76778;BME280;65721;50.118;8.714;2022-12-07T10:51:17;100290.55;;;6.88;64.43
76778;BME280;65721;50.118;8.714;2022-12-07T10:54:18;100290.52;;;7.13;63.50
76778;BME280;65721;50.118;8.714;2022-12-07T11:03:05;100280.95;;;7.42;62.04
76778;BME280;65721;50.118;8.714;2022-12-07T11:11:05;100269.70;;;8.02;59.93
76778;BME280;65721;50.118;8.714;2022-12-07T11:13:44;100269.52;;;8.46;59.55
76778;BME280;65721;50.118;8.714;2022-12-07T11:19:19;100257.66;;;9.58;56.68
76778;BME280;65721;50.118;8.714;2022-12-07T11:21:58;100256.62;;;9.45;56.80
76778;BME280;65721;50.118;8.714;2022-12-07T11:24:42;100258.96;;;9.26;56.55
76778;BME280;65721;50.118;8.714;2022-12-07T11:27:36;100254.58;;;8.97;56.63
76778;BME280;65721;50.118;8.714;2022-12-07T11:30:23;100254.23;;;8.61;57.11
76778;BME280;65721;50.118;8.714;2022-12-07T11:33:01;100243.41;;;8.30;57.65
76778;BME280;65721;50.118;8.714;2022-12-07T11:35:43;100242.58;;;8.08;58.13
76778;BME280;65721;50.118;8.714;2022-12-07T11:38:26;100236.58;;;7.86;58.30
76778;BME280;65721;50.118;8.714;2022-12-07T11:41:01;100240.04;;;7.70;58.61
76778;BME280;65721;50.118;8.714;2022-12-07T11:46:50;100236.13;;;7.55;59.11
76778;BME280;65721;50.118;8.714;2022-12-07T11:49:51;100241.27;;;7.56;59.09
76778;BME280;65721;50.118;8.714;2022-12-07T11:52:27;100234.21;;;7.50;59.36
76778;BME280;65721;50.118;8.714;2022-12-07T11:54:58;100232.33;;;7.49;59.15
76778;BME280;65721;50.118;8.714;2022-12-07T11:57:39;100224.98;;;7.51;59.41
76778;BME280;65721;50.118;8.714;2022-12-07T12:00:17;100219.94;;;7.59;59.81
76778;BME280;65721;50.118;8.714;2022-12-07T12:03:03;100218.24;;;7.80;58.70
76778;BME280;65721;50.118;8.714;2022-12-07T12:05:31;100215.36;;;8.64;56.70
76778;BME280;65721;50.118;8.714;2022-12-07T12:08:18;100203.23;;;10.80;53.78
76778;BME280;65721;50.118;8.714;2022-12-07T12:10:55;100202.38;;;12.92;49.83
76778;BME280;65721;50.118;8.714;2022-12-07T12:16:47;100193.65;;;13.27;46.86
76778;BME280;65721;50.118;8.714;2022-12-07T12:19:27;100193.38;;;12.54;47.02
76778;BME280;65721;50.118;8.714;2022-12-07T12:22:18;100190.40;;;11.89;47.99
76778;BME280;65721;50.118;8.714;2022-12-07T12:24:49;100184.09;;;11.37;48.67
76778;BME280;65721;50.118;8.714;2022-12-07T12:27:23;100187.96;;;10.92;48.90
76778;BME280;65721;50.118;8.714;2022-12-07T12:29:55;100187.27;;;10.52;49.35
76778;BME280;65721;50.118;8.714;2022-12-07T12:32:42;100185.80;;;10.15;50.05
76778;BME280;65721;50.118;8.714;2022-12-07T12:35:27;100187.38;;;9.75;50.71
76778;BME280;65721;50.118;8.714;2022-12-07T12:37:54;100179.81;;;9.43;51.49
76778;BME280;65721;50.118;8.714;2022-12-07T12:42:49;100177.39;;;9.19;52.66
76778;BME280;65721;50.118;8.714;2022-12-07T12:45:27;100173.13;;;9.61;52.70
76778;BME280;65721;50.118;8.714;2022-12-07T12:56:10;100172.45;;;10.62;48.73
76778;BME280;65721;50.118;8.714;2022-12-07T12:58:38;100172.61;;;9.93;50.40
76778;BME280;65721;50.118;8.714;2022-12-07T13:04:02;100168.39;;;8.88;53.08
76778;BME280;65721;50.118;8.714;2022-12-07T13:06:32;100169.48;;;8.54;54.13
76778;BME280;65721;50.118;8.714;2022-12-07T13:09:02;100167.80;;;8.33;55.16
76778;BME280;65721;50.118;8.714;2022-12-07T13:11:32;100168.46;;;8.29;55.69
76778;BME280;65721;50.118;8.714;2022-12-07T13:20:00;100161.09;;;9.18;54.81
76778;BME280;65721;50.118;8.714;2022-12-07T13:25:09;100166.60;;;9.36;55.19
76778;BME280;65721;50.118;8.714;2022-12-07T13:27:41;100163.71;;;9.53;55.37
76778;BME280;65721;50.118;8.714;2022-12-07T13:30:15;100167.46;;;9.86;54.20
76778;BME280;65721;50.118;8.714;2022-12-07T13:32:42;100165.55;;;10.11;54.18
76778;BME280;65721;50.118;8.714;2022-12-07T13:35:28;100164.33;;;10.19;54.02
76778;BME280;65721;50.118;8.714;2022-12-07T13:37:54;100162.45;;;10.13;53.86
76778;BME280;65721;50.118;8.714;2022-12-07T13:40:22;100159.91;;;9.90;53.39
76778;BME280;65721;50.118;8.714;2022-12-07T13:43:01;100159.94;;;9.61;53.89
76778;BME280;65721;50.118;8.714;2022-12-07T13:48:19;100163.28;;;8.99;55.47
76778;BME280;65721;50.118;8.714;2022-12-07T13:50:55;100162.86;;;8.75;55.78
76778;BME280;65721;50.118;8.714;2022-12-07T13:53:22;100162.98;;;8.57;56.33
76778;BME280;65721;50.118;8.714;2022-12-07T13:55:48;100159.52;;;8.47;56.48
76778;BME280;65721;50.118;8.714;2022-12-07T13:58:14;100161.20;;;8.44;56.67
76778;BME280;65721;50.118;8.714;2022-12-07T14:00:41;100163.02;;;8.34;56.72
76778;BME280;65721;50.118;8.714;2022-12-07T14:05:40;100161.27;;;8.00;57.54
76778;BME280;65721;50.118;8.714;2022-12-07T14:10:38;100165.34;;;7.71;58.16
76778;BME280;65721;50.118;8.714;2022-12-07T14:13:27;100161.11;;;7.56;58.28
76778;BME280;65721;50.118;8.714;2022-12-07T14:15:54;100159.08;;;7.38;58.71
76778;BME280;65721;50.118;8.714;2022-12-07T14:18:36;100162.50;;;7.21;59.10
76778;BME280;65721;50.118;8.714;2022-12-07T14:21:14;100161.35;;;7.07;59.80
76778;BME280;65721;50.118;8.714;2022-12-07T14:23:40;100161.39;;;6.95;60.18
76778;BME280;65721;50.118;8.714;2022-12-07T14:26:20;100163.52;;;6.86;60.40
76778;BME280;65721;50.118;8.714;2022-12-07T14:28:46;100164.98;;;6.79;61.13
76778;BME280;65721;50.118;8.714;2022-12-07T14:31:17;100166.57;;;6.70;61.24
76778;BME280;65721;50.118;8.714;2022-12-07T14:33:43;100163.58;;;6.62;61.64
76778;BME280;65721;50.118;8.714;2022-12-07T14:36:10;100158.90;;;6.56;62.07
76778;BME280;65721;50.118;8.714;2022-12-07T14:38:35;100159.52;;;6.50;62.62
76778;BME280;65721;50.118;8.714;2022-12-07T14:41:02;100161.67;;;6.46;62.95
76778;BME280;65721;50.118;8.714;2022-12-07T14:43:47;100164.88;;;6.43;63.01